sensor_id;sensor_type;location;lat;lon;timestamp;P1;durP1;ratioP1;P2;durP2;ratioP2
24435;SDS011;12616;52.470;13.436;2023-05-25T00:01:59;10.37;;;6.70;;
24435;SDS011;12616;52.470;13.436;2023-05-25T00:04:28;7.83;;;6.20;;
24435;SDS011;12616;52.470;13.436;2023-05-25T00:06:58;11.40;;;7.30;;
24435;SDS011;12616;52.470;13.436;2023-05-25T00:09:26;13.30;;;6.77;;
24435;SDS011;12616;52.470;13.436;2023-05-25T00:11:53;9.70;;;7.00;;
24435;SDS011;12616;52.470;13.436;2023-05-25T00:14:20;10.63;;;7.27;;
24435;SDS011;12616;52.470;13.436;2023-05-25T00:16:47;8.40;;;6.87;;
24435;SDS011;12616;52.470;13.436;2023-05-25T00:19:15;9.03;;;6.60;;
24435;SDS011;12616;52.470;13.436;2023-05-25T00:21:43;8.90;;;6.33;;
24435;SDS011;12616;52.470;13.436;2023-05-25T00:24:12;8.90;;;6.27;;
24435;SDS011;12616;52.470;13.436;2023-05-25T00:26:41;9.87;;;6.17;;
24435;SDS011;12616;52.470;13.436;2023-05-25T00:29:07;7.50;;;5.77;;
24435;SDS011;12616;52.470;13.436;2023-05-25T00:31:35;13.20;;;6.63;;
24435;SDS011;12616;52.470;13.436;2023-05-25T00:34:01;8.50;;;6.47;;
24435;SDS011;12616;52.470;13.436;2023-05-25T00:36:28;11.87;;;6.60;;
24435;SDS011;12616;52.470;13.436;2023-05-25T00:38:55;8.80;;;5.97;;
24435;SDS011;12616;52.470;13.436;2023-05-25T00:41:22;12.03;;;5.97;;
24435;SDS011;12616;52.470;13.436;2023-05-25T00:43:51;8.63;;;6.00;;
24435;SDS011;12616;52.470;13.436;2023-05-25T00:46:18;8.27;;;6.23;;
24435;SDS011;12616;52.470;13.436;2023-05-25T00:48:46;11.73;;;6.40;;
24435;SDS011;12616;52.470;13.436;2023-05-25T00:51:13;7.70;;;6.20;;
24435;SDS011;12616;52.470;13.436;2023-05-25T00:53:41;14.23;;;7.03;;
24435;SDS011;12616;52.470;13.436;2023-05-25T00:56:09;9.17;;;5.50;;
24435;SDS011;12616;52.470;13.436;2023-05-25T00:58:40;12.00;;;6.60;;
24435;SDS011;12616;52.470;13.436;2023-05-25T01:01:11;9.17;;;6.77;;
24435;SDS011;12616;52.470;13.436;2023-05-25T01:03:40;8.57;;;5.43;;
24435;SDS011;12616;52.470;13.436;2023-05-25T01:06:10;10.13;;;7.00;;
24435;SDS011;12616;52.470;13.436;2023-05-25T01:08:40;9.00;;;5.80;;
24435;SDS011;12616;52.470;13.436;2023-05-25T01:11:12;9.80;;;6.10;;
24435;SDS011;12616;52.470;13.436;2023-05-25T01:13:40;11.60;;;6.60;;
24435;SDS011;12616;52.470;13.436;2023-05-25T01:16:08;10.60;;;5.77;;
24435;SDS011;12616;52.470;13.436;2023-05-25T01:18:36;7.50;;;5.77;;
24435;SDS011;12616;52.470;13.436;2023-05-25T01:21:08;9.87;;;6.10;;
24435;SDS011;12616;52.470;13.436;2023-05-25T01:23:39;7.60;;;6.07;;
24435;SDS011;12616;52.470;13.436;2023-05-25T01:26:12;8.00;;;6.13;;
24435;SDS011;12616;52.470;13.436;2023-05-25T01:28:44;11.23;;;5.33;;
24435;SDS011;12616;52.470;13.436;2023-05-25T01:31:15;11.40;;;6.80;;
24435;SDS011;12616;52.470;13.436;2023-05-25T01:33:45;12.50;;;6.77;;
24435;SDS011;12616;52.470;13.436;2023-05-25T01:36:16;11.87;;;6.40;;
24435;SDS011;12616;52.470;13.436;2023-05-25T01:38:43;9.00;;;6.33;;
24435;SDS011;12616;52.470;13.436;2023-05-25T01:41:09;7.73;;;6.53;;
24435;SDS011;12616;52.470;13.436;2023-05-25T01:43:36;11.83;;;6.27;;
24435;SDS011;12616;52.470;13.436;2023-05-25T01:46:05;8.30;;;6.20;;
24435;SDS011;12616;52.470;13.436;2023-05-25T01:48:39;6.83;;;5.80;;
24435;SDS011;12616;52.470;13.436;2023-05-25T01:51:18;11.20;;;5.97;;
24435;SDS011;12616;52.470;13.436;2023-05-25T01:53:53;9.40;;;6.53;;
24435;SDS011;12616;52.470;13.436;2023-05-25T01:56:25;10.80;;;7.67;;
24435;SDS011;12616;52.470;13.436;2023-05-25T01:58:54;8.93;;;6.00;;
24435;SDS011;12616;52.470;13.436;2023-05-25T02:01:23;11.27;;;6.47;;
24435;SDS011;12616;52.470;13.436;2023-05-25T02:03:51;9.70;;;6.30;;
24435;SDS011;12616;52.470;13.436;2023-05-25T02:06:19;12.13;;;6.70;;
24435;SDS011;12616;52.470;13.436;2023-05-25T02:08:46;8.13;;;6.90;;
24435;SDS011;12616;52.470;13.436;2023-05-25T02:11:13;10.93;;;6.83;;
24435;SDS011;12616;52.470;13.436;2023-05-25T02:13:40;6.97;;;6.27;;
24435;SDS011;12616;52.470;13.436;2023-05-25T02:16:07;6.93;;;6.00;;
24435;SDS011;12616;52.470;13.436;2023-05-25T02:18:34;7.37;;;6.67;;
24435;SDS011;12616;52.470;13.436;2023-05-25T02:21:01;9.67;;;6.40;;
24435;SDS011;12616;52.470;13.436;2023-05-25T02:23:29;11.40;;;6.73;;
24435;SDS011;12616;52.470;13.436;2023-05-25T02:25:56;15.53;;;7.57;;
24435;SDS011;12616;52.470;13.436;2023-05-25T02:28:23;12.90;;;7.00;;
24435;SDS011;12616;52.470;13.436;2023-05-25T02:30:50;11.23;;;6.80;;
24435;SDS011;12616;52.470;13.436;2023-05-25T02:33:17;9.60;;;5.97;;
24435;SDS011;12616;52.470;13.436;2023-05-25T02:35:44;15.97;;;7.30;;
24435;SDS011;12616;52.470;13.436;2023-05-25T02:38:11;10.27;;;7.63;;
24435;SDS011;12616;52.470;13.436;2023-05-25T02:40:40;13.40;;;7.23;;
24435;SDS011;12616;52.470;13.436;2023-05-25T02:43:06;7.87;;;6.47;;
24435;SDS011;12616;52.470;13.436;2023-05-25T02:45:34;11.97;;;7.50;;
24435;SDS011;12616;52.470;13.436;2023-05-25T02:48:00;7.73;;;6.03;;
24435;SDS011;12616;52.470;13.436;2023-05-25T02:50:27;10.60;;;6.90;;
24435;SDS011;12616;52.470;13.436;2023-05-25T02:52:54;9.67;;;6.60;;
24435;SDS011;12616;52.470;13.436;2023-05-25T02:55:21;15.57;;;7.00;;
24435;SDS011;12616;52.470;13.436;2023-05-25T02:57:51;10.27;;;6.77;;
24435;SDS011;12616;52.470;13.436;2023-05-25T03:00:18;7.47;;;6.70;;
24435;SDS011;12616;52.470;13.436;2023-05-25T03:02:45;13.10;;;7.20;;
24435;SDS011;12616;52.470;13.436;2023-05-25T03:05:12;8.90;;;6.40;;
24435;SDS011;12616;52.470;13.436;2023-05-25T03:07:40;7.67;;;6.40;;
24435;SDS011;12616;52.470;13.436;2023-05-25T03:10:14;9.03;;;7.00;;
24435;SDS011;12616;52.470;13.436;2023-05-25T03:12:50;11.40;;;6.83;;
24435;SDS011;12616;52.470;13.436;2023-05-25T03:15:17;16.03;;;6.67;;
24435;SDS011;12616;52.470;13.436;2023-05-25T03:17:44;11.00;;;7.23;;
24435;SDS011;12616;52.470;13.436;2023-05-25T03:20:11;10.27;;;6.80;;
24435;SDS011;12616;52.470;13.436;2023-05-25T03:22:40;11.47;;;7.40;;
24435;SDS011;12616;52.470;13.436;2023-05-25T03:25:07;12.47;;;7.53;;
24435;SDS011;12616;52.470;13.436;2023-05-25T03:27:36;10.43;;;7.23;;
24435;SDS011;12616;52.470;13.436;2023-05-25T03:30:05;9.07;;;7.50;;
24435;SDS011;12616;52.470;13.436;2023-05-25T03:32:33;11.03;;;7.37;;
24435;SDS011;12616;52.470;13.436;2023-05-25T03:35:00;10.80;;;7.40;;
24435;SDS011;12616;52.470;13.436;2023-05-25T03:37:27;11.77;;;7.40;;
24435;SDS011;12616;52.470;13.436;2023-05-25T03:39:53;9.70;;;7.10;;
24435;SDS011;12616;52.470;13.436;2023-05-25T03:42:21;14.03;;;7.60;;
24435;SDS011;12616;52.470;13.436;2023-05-25T03:44:47;9.33;;;7.27;;
24435;SDS011;12616;52.470;13.436;2023-05-25T03:47:16;9.70;;;7.40;;
24435;SDS011;12616;52.470;13.436;2023-05-25T03:49:43;9.80;;;7.33;;
24435;SDS011;12616;52.470;13.436;2023-05-25T03:52:09;10.40;;;6.87;;
24435;SDS011;12616;52.470;13.436;2023-05-25T03:54:36;9.97;;;7.40;;
24435;SDS011;12616;52.470;13.436;2023-05-25T03:57:03;8.80;;;7.10;;
24435;SDS011;12616;52.470;13.436;2023-05-25T03:59:30;11.77;;;7.97;;
24435;SDS011;12616;52.470;13.436;2023-05-25T04:01:57;10.23;;;6.97;;
24435;SDS011;12616;52.470;13.436;2023-05-25T04:04:25;12.17;;;8.30;;
24435;SDS011;12616;52.470;13.436;2023-05-25T04:06:53;10.13;;;7.50;;
24435;SDS011;12616;52.470;13.436;2023-05-25T04:09:22;13.80;;;7.40;;
24435;SDS011;12616;52.470;13.436;2023-05-25T04:11:49;11.70;;;8.17;;
24435;SDS011;12616;52.470;13.436;2023-05-25T04:14:16;15.43;;;8.63;;
24435;SDS011;12616;52.470;13.436;2023-05-25T04:16:44;10.90;;;7.10;;
24435;SDS011;12616;52.470;13.436;2023-05-25T04:19:11;18.87;;;8.60;;
24435;SDS011;12616;52.470;13.436;2023-05-25T04:21:39;13.30;;;7.70;;
24435;SDS011;12616;52.470;13.436;2023-05-25T04:24:06;10.47;;;7.53;;
24435;SDS011;12616;52.470;13.436;2023-05-25T04:26:33;14.57;;;8.13;;
24435;SDS011;12616;52.470;13.436;2023-05-25T04:29:00;14.27;;;8.37;;
24435;SDS011;12616;52.470;13.436;2023-05-25T04:31:27;16.03;;;10.83;;
24435;SDS011;12616;52.470;13.436;2023-05-25T04:33:53;14.50;;;8.37;;
24435;SDS011;12616;52.470;13.436;2023-05-25T04:36:23;13.17;;;8.60;;
24435;SDS011;12616;52.470;13.436;2023-05-25T04:38:51;13.20;;;9.63;;
24435;SDS011;12616;52.470;13.436;2023-05-25T04:41:19;17.03;;;10.10;;
24435;SDS011;12616;52.470;13.436;2023-05-25T04:43:46;15.23;;;10.27;;
24435;SDS011;12616;52.470;13.436;2023-05-25T04:46:14;11.60;;;8.00;;
24435;SDS011;12616;52.470;13.436;2023-05-25T04:48:41;10.80;;;8.33;;
24435;SDS011;12616;52.470;13.436;2023-05-25T04:51:09;17.27;;;9.67;;
24435;SDS011;12616;52.470;13.436;2023-05-25T04:53:36;12.07;;;9.03;;
24435;SDS011;12616;52.470;13.436;2023-05-25T04:56:05;16.77;;;9.67;;
24435;SDS011;12616;52.470;13.436;2023-05-25T04:58:32;17.93;;;9.53;;
24435;SDS011;12616;52.470;13.436;2023-05-25T05:00:59;21.70;;;10.60;;
24435;SDS011;12616;52.470;13.436;2023-05-25T05:03:26;14.83;;;9.37;;
24435;SDS011;12616;52.470;13.436;2023-05-25T05:05:53;12.93;;;9.57;;
24435;SDS011;12616;52.470;13.436;2023-05-25T05:08:19;18.57;;;9.13;;
24435;SDS011;12616;52.470;13.436;2023-05-25T05:10:46;14.47;;;9.40;;
24435;SDS011;12616;52.470;13.436;2023-05-25T05:13:14;17.27;;;10.10;;
24435;SDS011;12616;52.470;13.436;2023-05-25T05:15:41;17.10;;;10.50;;
24435;SDS011;12616;52.470;13.436;2023-05-25T05:18:08;16.47;;;9.43;;
24435;SDS011;12616;52.470;13.436;2023-05-25T05:20:36;23.13;;;11.90;;
24435;SDS011;12616;52.470;13.436;2023-05-25T05:23:03;16.90;;;9.33;;
24435;SDS011;12616;52.470;13.436;2023-05-25T05:25:30;17.67;;;10.40;;
24435;SDS011;12616;52.470;13.436;2023-05-25T05:27:57;24.67;;;11.23;;
24435;SDS011;12616;52.470;13.436;2023-05-25T05:30:25;12.33;;;9.83;;
24435;SDS011;12616;52.470;13.436;2023-05-25T05:32:52;19.50;;;10.07;;
24435;SDS011;12616;52.470;13.436;2023-05-25T05:35:19;18.03;;;11.20;;
24435;SDS011;12616;52.470;13.436;2023-05-25T05:37:47;11.67;;;10.10;;
24435;SDS011;12616;52.470;13.436;2023-05-25T05:40:13;18.00;;;9.43;;
24435;SDS011;12616;52.470;13.436;2023-05-25T05:42:40;19.57;;;11.70;;
24435;SDS011;12616;52.470;13.436;2023-05-25T05:45:07;14.53;;;9.90;;
24435;SDS011;12616;52.470;13.436;2023-05-25T05:47:36;12.40;;;9.40;;
24435;SDS011;12616;52.470;13.436;2023-05-25T05:50:03;24.10;;;10.90;;
24435;SDS011;12616;52.470;13.436;2023-05-25T05:52:31;22.10;;;13.70;;
24435;SDS011;12616;52.470;13.436;2023-05-25T05:54:58;18.63;;;10.33;;
24435;SDS011;12616;52.470;13.436;2023-05-25T05:57:25;17.60;;;10.57;;
24435;SDS011;12616;52.470;13.436;2023-05-25T05:59:52;16.03;;;8.90;;
24435;SDS011;12616;52.470;13.436;2023-05-25T06:02:19;20.43;;;11.40;;
24435;SDS011;12616;52.470;13.436;2023-05-25T06:04:47;15.17;;;10.80;;
24435;SDS011;12616;52.470;13.436;2023-05-25T06:07:14;16.30;;;10.50;;
24435;SDS011;12616;52.470;13.436;2023-05-25T06:09:41;18.13;;;10.03;;
24435;SDS011;12616;52.470;13.436;2023-05-25T06:12:08;16.33;;;9.70;;
24435;SDS011;12616;52.470;13.436;2023-05-25T06:14:35;15.70;;;10.30;;
24435;SDS011;12616;52.470;13.436;2023-05-25T06:17:01;14.80;;;10.03;;
24435;SDS011;12616;52.470;13.436;2023-05-25T06:19:28;16.73;;;9.73;;
24435;SDS011;12616;52.470;13.436;2023-05-25T06:21:57;18.60;;;9.67;;
24435;SDS011;12616;52.470;13.436;2023-05-25T06:24:23;15.70;;;9.00;;
24435;SDS011;12616;52.470;13.436;2023-05-25T06:26:50;17.33;;;10.40;;
24435;SDS011;12616;52.470;13.436;2023-05-25T06:29:17;17.27;;;9.70;;
24435;SDS011;12616;52.470;13.436;2023-05-25T06:31:44;19.23;;;10.00;;
24435;SDS011;12616;52.470;13.436;2023-05-25T06:34:11;21.97;;;11.20;;
24435;SDS011;12616;52.470;13.436;2023-05-25T06:36:38;15.53;;;8.63;;
24435;SDS011;12616;52.470;13.436;2023-05-25T06:39:09;17.63;;;9.93;;
24435;SDS011;12616;52.470;13.436;2023-05-25T06:41:36;18.47;;;11.97;;
24435;SDS011;12616;52.470;13.436;2023-05-25T06:44:07;11.13;;;9.03;;
24435;SDS011;12616;52.470;13.436;2023-05-25T06:46:45;14.00;;;7.53;;
24435;SDS011;12616;52.470;13.436;2023-05-25T06:49:14;18.53;;;8.57;;
24435;SDS011;12616;52.470;13.436;2023-05-25T06:51:44;19.57;;;8.87;;
24435;SDS011;12616;52.470;13.436;2023-05-25T06:54:12;14.47;;;9.20;;
24435;SDS011;12616;52.470;13.436;2023-05-25T06:56:41;17.50;;;8.23;;
24435;SDS011;12616;52.470;13.436;2023-05-25T06:59:09;16.97;;;8.10;;
24435;SDS011;12616;52.470;13.436;2023-05-25T07:01:36;11.70;;;6.73;;
24435;SDS011;12616;52.470;13.436;2023-05-25T07:04:10;9.43;;;6.70;;
24435;SDS011;12616;52.470;13.436;2023-05-25T07:06:52;16.57;;;7.50;;
24435;SDS011;12616;52.470;13.436;2023-05-25T07:09:20;14.93;;;7.00;;
24435;SDS011;12616;52.470;13.436;2023-05-25T07:11:47;10.20;;;6.20;;
24435;SDS011;12616;52.470;13.436;2023-05-25T07:14:15;8.20;;;6.10;;
24435;SDS011;12616;52.470;13.436;2023-05-25T07:16:42;10.87;;;6.17;;
24435;SDS011;12616;52.470;13.436;2023-05-25T07:19:10;13.10;;;6.03;;
24435;SDS011;12616;52.470;13.436;2023-05-25T07:21:36;13.57;;;5.73;;
24435;SDS011;12616;52.470;13.436;2023-05-25T07:24:03;10.20;;;6.10;;
24435;SDS011;12616;52.470;13.436;2023-05-25T07:26:32;11.27;;;6.10;;
24435;SDS011;12616;52.470;13.436;2023-05-25T07:29:00;11.03;;;5.13;;
24435;SDS011;12616;52.470;13.436;2023-05-25T07:31:27;10.30;;;6.60;;
24435;SDS011;12616;52.470;13.436;2023-05-25T07:33:54;15.00;;;6.10;;
24435;SDS011;12616;52.470;13.436;2023-05-25T07:36:21;14.90;;;5.60;;
24435;SDS011;12616;52.470;13.436;2023-05-25T07:38:48;12.33;;;7.00;;
24435;SDS011;12616;52.470;13.436;2023-05-25T07:41:15;7.30;;;5.80;;
24435;SDS011;12616;52.470;13.436;2023-05-25T07:43:43;8.70;;;6.40;;
24435;SDS011;12616;52.470;13.436;2023-05-25T07:46:10;14.07;;;6.50;;
24435;SDS011;12616;52.470;13.436;2023-05-25T07:48:37;14.47;;;7.40;;
24435;SDS011;12616;52.470;13.436;2023-05-25T07:51:04;10.73;;;5.47;;
24435;SDS011;12616;52.470;13.436;2023-05-25T07:53:31;9.77;;;5.90;;
24435;SDS011;12616;52.470;13.436;2023-05-25T07:55:58;8.73;;;5.00;;
24435;SDS011;12616;52.470;13.436;2023-05-25T07:58:25;9.43;;;5.30;;
24435;SDS011;12616;52.470;13.436;2023-05-25T08:00:53;12.80;;;5.27;;
24435;SDS011;12616;52.470;13.436;2023-05-25T08:03:20;10.50;;;5.67;;
24435;SDS011;12616;52.470;13.436;2023-05-25T08:05:47;10.57;;;5.57;;
24435;SDS011;12616;52.470;13.436;2023-05-25T08:08:15;8.57;;;3.83;;
24435;SDS011;12616;52.470;13.436;2023-05-25T08:10:41;10.83;;;5.00;;
24435;SDS011;12616;52.470;13.436;2023-05-25T08:13:10;9.97;;;5.23;;
24435;SDS011;12616;52.470;13.436;2023-05-25T08:15:36;7.10;;;4.57;;
24435;SDS011;12616;52.470;13.436;2023-05-25T08:18:05;7.20;;;4.20;;
24435;SDS011;12616;52.470;13.436;2023-05-25T08:20:31;14.70;;;4.93;;
24435;SDS011;12616;52.470;13.436;2023-05-25T08:22:58;8.23;;;5.20;;
24435;SDS011;12616;52.470;13.436;2023-05-25T08:25:25;7.23;;;5.10;;
24435;SDS011;12616;52.470;13.436;2023-05-25T08:27:52;8.07;;;5.67;;
24435;SDS011;12616;52.470;13.436;2023-05-25T08:30:19;9.37;;;4.97;;
24435;SDS011;12616;52.470;13.436;2023-05-25T08:32:46;13.57;;;6.60;;
24435;SDS011;12616;52.470;13.436;2023-05-25T08:35:15;20.27;;;6.13;;
24435;SDS011;12616;52.470;13.436;2023-05-25T08:37:42;13.30;;;5.90;;
24435;SDS011;12616;52.470;13.436;2023-05-25T08:40:11;17.87;;;7.10;;
24435;SDS011;12616;52.470;13.436;2023-05-25T08:42:41;8.60;;;5.80;;
24435;SDS011;12616;52.470;13.436;2023-05-25T08:45:08;6.33;;;5.53;;
24435;SDS011;12616;52.470;13.436;2023-05-25T08:47:38;7.03;;;5.40;;
24435;SDS011;12616;52.470;13.436;2023-05-25T08:50:07;9.67;;;5.40;;
24435;SDS011;12616;52.470;13.436;2023-05-25T08:52:37;10.90;;;5.43;;
24435;SDS011;12616;52.470;13.436;2023-05-25T08:55:06;9.33;;;5.43;;
24435;SDS011;12616;52.470;13.436;2023-05-25T08:57:36;8.10;;;4.50;;
24435;SDS011;12616;52.470;13.436;2023-05-25T09:00:09;12.50;;;5.53;;
24435;SDS011;12616;52.470;13.436;2023-05-25T09:02:41;8.10;;;4.80;;
24435;SDS011;12616;52.470;13.436;2023-05-25T09:05:14;5.20;;;4.20;;
24435;SDS011;12616;52.470;13.436;2023-05-25T09:07:42;9.10;;;5.00;;
24435;SDS011;12616;52.470;13.436;2023-05-25T09:10:09;10.03;;;4.60;;
24435;SDS011;12616;52.470;13.436;2023-05-25T09:12:37;10.47;;;4.47;;
24435;SDS011;12616;52.470;13.436;2023-05-25T09:15:04;5.90;;;4.47;;
24435;SDS011;12616;52.470;13.436;2023-05-25T09:17:32;7.30;;;4.47;;
24435;SDS011;12616;52.470;13.436;2023-05-25T09:19:59;6.50;;;5.60;;
24435;SDS011;12616;52.470;13.436;2023-05-25T09:22:26;8.20;;;4.70;;
24435;SDS011;12616;52.470;13.436;2023-05-25T09:24:55;9.40;;;4.93;;
24435;SDS011;12616;52.470;13.436;2023-05-25T09:27:22;11.23;;;7.30;;
24435;SDS011;12616;52.470;13.436;2023-05-25T09:29:49;10.47;;;5.17;;
24435;SDS011;12616;52.470;13.436;2023-05-25T09:32:17;12.57;;;5.50;;
24435;SDS011;12616;52.470;13.436;2023-05-25T09:34:45;8.63;;;4.77;;
24435;SDS011;12616;52.470;13.436;2023-05-25T09:37:12;8.67;;;5.17;;
24435;SDS011;12616;52.470;13.436;2023-05-25T09:39:40;8.00;;;4.47;;
24435;SDS011;12616;52.470;13.436;2023-05-25T09:42:09;6.70;;;4.23;;
24435;SDS011;12616;52.470;13.436;2023-05-25T09:44:36;5.77;;;4.10;;
24435;SDS011;12616;52.470;13.436;2023-05-25T09:47:03;6.00;;;4.67;;
24435;SDS011;12616;52.470;13.436;2023-05-25T09:49:31;8.90;;;4.30;;
24435;SDS011;12616;52.470;13.436;2023-05-25T09:51:58;9.20;;;5.10;;
24435;SDS011;12616;52.470;13.436;2023-05-25T09:54:25;11.53;;;5.33;;
24435;SDS011;12616;52.470;13.436;2023-05-25T09:56:54;12.73;;;5.60;;
24435;SDS011;12616;52.470;13.436;2023-05-25T09:59:23;23.30;;;6.97;;
24435;SDS011;12616;52.470;13.436;2023-05-25T10:01:50;35.27;;;8.47;;
24435;SDS011;12616;52.470;13.436;2023-05-25T10:04:20;29.10;;;7.27;;
24435;SDS011;12616;52.470;13.436;2023-05-25T10:06:47;6.97;;;4.70;;
24435;SDS011;12616;52.470;13.436;2023-05-25T10:09:14;9.67;;;5.60;;
24435;SDS011;12616;52.470;13.436;2023-05-25T10:11:44;12.40;;;5.23;;
24435;SDS011;12616;52.470;13.436;2023-05-25T10:14:13;11.53;;;6.37;;
24435;SDS011;12616;52.470;13.436;2023-05-25T10:16:43;8.43;;;5.70;;
24435;SDS011;12616;52.470;13.436;2023-05-25T10:19:14;6.80;;;4.83;;
24435;SDS011;12616;52.470;13.436;2023-05-25T10:21:50;12.80;;;5.83;;
24435;SDS011;12616;52.470;13.436;2023-05-25T10:24:23;4.97;;;4.43;;
24435;SDS011;12616;52.470;13.436;2023-05-25T10:26:55;6.60;;;4.90;;
24435;SDS011;12616;52.470;13.436;2023-05-25T10:29:25;11.70;;;5.27;;
24435;SDS011;12616;52.470;13.436;2023-05-25T10:31:54;9.80;;;6.30;;
24435;SDS011;12616;52.470;13.436;2023-05-25T10:34:23;7.83;;;5.10;;
24435;SDS011;12616;52.470;13.436;2023-05-25T10:36:51;9.43;;;5.07;;
24435;SDS011;12616;52.470;13.436;2023-05-25T10:39:20;10.40;;;5.23;;
24435;SDS011;12616;52.470;13.436;2023-05-25T10:41:48;8.30;;;4.50;;
24435;SDS011;12616;52.470;13.436;2023-05-25T10:44:17;11.73;;;4.93;;
24435;SDS011;12616;52.470;13.436;2023-05-25T10:46:45;8.53;;;6.30;;
24435;SDS011;12616;52.470;13.436;2023-05-25T10:49:14;6.70;;;5.30;;
24435;SDS011;12616;52.470;13.436;2023-05-25T10:51:56;9.97;;;4.73;;
24435;SDS011;12616;52.470;13.436;2023-05-25T10:54:27;7.93;;;5.40;;
24435;SDS011;12616;52.470;13.436;2023-05-25T10:57:07;11.63;;;6.07;;
24435;SDS011;12616;52.470;13.436;2023-05-25T10:59:35;15.17;;;6.67;;
24435;SDS011;12616;52.470;13.436;2023-05-25T11:02:04;7.00;;;5.07;;
24435;SDS011;12616;52.470;13.436;2023-05-25T11:07:55;8.20;;;5.17;;
24435;SDS011;12616;52.470;13.436;2023-05-25T11:13:23;8.20;;;5.40;;
24435;SDS011;12616;52.470;13.436;2023-05-25T11:16:16;10.17;;;5.83;;
24435;SDS011;12616;52.470;13.436;2023-05-25T11:18:45;4.73;;;4.13;;
24435;SDS011;12616;52.470;13.436;2023-05-25T11:21:20;9.73;;;5.67;;
24435;SDS011;12616;52.470;13.436;2023-05-25T11:23:53;10.37;;;6.10;;
24435;SDS011;12616;52.470;13.436;2023-05-25T11:26:21;5.87;;;5.30;;
24435;SDS011;12616;52.470;13.436;2023-05-25T11:28:50;11.50;;;6.20;;
24435;SDS011;12616;52.470;13.436;2023-05-25T11:31:21;8.17;;;5.73;;
24435;SDS011;12616;52.470;13.436;2023-05-25T11:33:55;10.90;;;6.17;;
24435;SDS011;12616;52.470;13.436;2023-05-25T11:36:22;8.97;;;6.37;;
24435;SDS011;12616;52.470;13.436;2023-05-25T11:38:50;8.07;;;5.77;;
24435;SDS011;12616;52.470;13.436;2023-05-25T11:41:19;6.93;;;5.50;;
24435;SDS011;12616;52.470;13.436;2023-05-25T11:43:47;5.83;;;5.23;;
24435;SDS011;12616;52.470;13.436;2023-05-25T11:46:17;9.00;;;6.07;;
24435;SDS011;12616;52.470;13.436;2023-05-25T11:48:48;6.63;;;5.47;;
24435;SDS011;12616;52.470;13.436;2023-05-25T11:51:17;7.57;;;6.00;;
24435;SDS011;12616;52.470;13.436;2023-05-25T11:53:45;9.50;;;7.60;;
24435;SDS011;12616;52.470;13.436;2023-05-25T11:56:14;10.87;;;8.00;;
24435;SDS011;12616;52.470;13.436;2023-05-25T11:58:43;6.67;;;5.63;;
24435;SDS011;12616;52.470;13.436;2023-05-25T12:01:12;7.50;;;5.77;;
24435;SDS011;12616;52.470;13.436;2023-05-25T12:03:40;7.30;;;5.77;;
24435;SDS011;12616;52.470;13.436;2023-05-25T12:06:08;8.07;;;6.13;;
24435;SDS011;12616;52.470;13.436;2023-05-25T12:08:47;7.87;;;6.07;;
24435;SDS011;12616;52.470;13.436;2023-05-25T12:11:16;10.10;;;7.20;;
24435;SDS011;12616;52.470;13.436;2023-05-25T12:13:43;11.87;;;6.27;;
24435;SDS011;12616;52.470;13.436;2023-05-25T12:16:10;10.73;;;5.83;;
24435;SDS011;12616;52.470;13.436;2023-05-25T12:18:37;9.10;;;6.67;;
24435;SDS011;12616;52.470;13.436;2023-05-25T12:21:04;7.40;;;5.47;;
24435;SDS011;12616;52.470;13.436;2023-05-25T12:23:32;11.00;;;6.20;;
24435;SDS011;12616;52.470;13.436;2023-05-25T12:26:07;9.07;;;6.03;;
24435;SDS011;12616;52.470;13.436;2023-05-25T12:28:37;7.00;;;6.33;;
24435;SDS011;12616;52.470;13.436;2023-05-25T12:31:19;10.73;;;6.97;;
24435;SDS011;12616;52.470;13.436;2023-05-25T12:34:00;8.30;;;6.93;;
24435;SDS011;12616;52.470;13.436;2023-05-25T12:36:35;8.33;;;7.50;;
24435;SDS011;12616;52.470;13.436;2023-05-25T12:39:08;7.67;;;6.20;;
24435;SDS011;12616;52.470;13.436;2023-05-25T12:44:26;10.20;;;6.23;;
24435;SDS011;12616;52.470;13.436;2023-05-25T12:46:55;11.27;;;6.20;;
24435;SDS011;12616;52.470;13.436;2023-05-25T12:49:34;11.70;;;7.73;;
24435;SDS011;12616;52.470;13.436;2023-05-25T12:52:02;10.80;;;7.63;;
24435;SDS011;12616;52.470;13.436;2023-05-25T12:54:40;13.87;;;7.73;;
24435;SDS011;12616;52.470;13.436;2023-05-25T12:57:09;9.33;;;7.00;;
24435;SDS011;12616;52.470;13.436;2023-05-25T12:59:38;8.83;;;6.30;;
24435;SDS011;12616;52.470;13.436;2023-05-25T13:02:06;7.73;;;6.80;;
24435;SDS011;12616;52.470;13.436;2023-05-25T13:04:34;8.77;;;6.43;;
24435;SDS011;12616;52.470;13.436;2023-05-25T13:07:02;10.93;;;6.20;;
24435;SDS011;12616;52.470;13.436;2023-05-25T13:09:29;12.77;;;7.90;;
24435;SDS011;12616;52.470;13.436;2023-05-25T13:11:56;10.57;;;7.13;;
24435;SDS011;12616;52.470;13.436;2023-05-25T13:14:24;9.90;;;5.70;;
24435;SDS011;12616;52.470;13.436;2023-05-25T13:16:53;9.90;;;6.03;;
24435;SDS011;12616;52.470;13.436;2023-05-25T13:19:22;9.97;;;6.27;;
24435;SDS011;12616;52.470;13.436;2023-05-25T13:21:51;8.30;;;5.40;;
24435;SDS011;12616;52.470;13.436;2023-05-25T13:24:19;11.23;;;7.90;;
24435;SDS011;12616;52.470;13.436;2023-05-25T13:26:47;12.33;;;7.00;;
24435;SDS011;12616;52.470;13.436;2023-05-25T13:29:14;8.30;;;6.67;;
24435;SDS011;12616;52.470;13.436;2023-05-25T13:31:41;7.23;;;5.50;;
24435;SDS011;12616;52.470;13.436;2023-05-25T13:34:10;7.97;;;5.87;;
24435;SDS011;12616;52.470;13.436;2023-05-25T13:36:36;12.90;;;7.03;;
24435;SDS011;12616;52.470;13.436;2023-05-25T13:39:03;10.50;;;5.13;;
24435;SDS011;12616;52.470;13.436;2023-05-25T13:41:31;11.23;;;5.83;;
24435;SDS011;12616;52.470;13.436;2023-05-25T13:43:58;13.07;;;5.60;;
24435;SDS011;12616;52.470;13.436;2023-05-25T13:46:25;7.07;;;5.90;;
24435;SDS011;12616;52.470;13.436;2023-05-25T13:48:52;5.90;;;5.30;;
24435;SDS011;12616;52.470;13.436;2023-05-25T13:51:20;10.40;;;6.30;;
24435;SDS011;12616;52.470;13.436;2023-05-25T13:53:47;13.23;;;6.40;;
24435;SDS011;12616;52.470;13.436;2023-05-25T13:56:14;9.00;;;5.07;;
24435;SDS011;12616;52.470;13.436;2023-05-25T13:58:44;7.70;;;5.20;;
24435;SDS011;12616;52.470;13.436;2023-05-25T14:01:11;9.10;;;5.70;;
24435;SDS011;12616;52.470;13.436;2023-05-25T14:03:38;10.70;;;4.53;;
24435;SDS011;12616;52.470;13.436;2023-05-25T14:06:05;11.37;;;5.93;;
24435;SDS011;12616;52.470;13.436;2023-05-25T14:08:33;11.00;;;5.63;;
24435;SDS011;12616;52.470;13.436;2023-05-25T14:11:00;9.80;;;5.90;;
24435;SDS011;12616;52.470;13.436;2023-05-25T14:13:27;8.10;;;4.97;;
24435;SDS011;12616;52.470;13.436;2023-05-25T14:15:54;9.33;;;5.30;;
24435;SDS011;12616;52.470;13.436;2023-05-25T14:18:21;7.50;;;4.60;;
24435;SDS011;12616;52.470;13.436;2023-05-25T14:20:47;8.40;;;4.80;;
24435;SDS011;12616;52.470;13.436;2023-05-25T14:23:14;11.03;;;6.10;;
24435;SDS011;12616;52.470;13.436;2023-05-25T14:25:44;9.57;;;5.50;;
24435;SDS011;12616;52.470;13.436;2023-05-25T14:28:12;7.70;;;5.13;;
24435;SDS011;12616;52.470;13.436;2023-05-25T14:30:39;8.97;;;5.10;;
24435;SDS011;12616;52.470;13.436;2023-05-25T14:33:06;8.47;;;5.50;;
24435;SDS011;12616;52.470;13.436;2023-05-25T14:35:37;6.07;;;4.83;;
24435;SDS011;12616;52.470;13.436;2023-05-25T14:38:05;11.47;;;4.97;;
24435;SDS011;12616;52.470;13.436;2023-05-25T14:40:31;6.70;;;5.10;;
24435;SDS011;12616;52.470;13.436;2023-05-25T14:43:00;10.80;;;5.53;;